Portada
METAR-TAF:

METAR-TAF

Aeroports :

Preston, Minnesota, Estats Units d'Amèrica

Fillmore County Airport

latitud: 43-40-36N, longitud: 092-10-47W, altitud: 389 m

Observació

L'informe es va fer fa 15 hores i 54 minuts, a les 15:15 UTC
Vent 5 kt del Oest/Nord-Oest
Temperatura -5°C
Humitat 93%
Pressió 1010 hPa
Visibilitat: 8.0 km
Cel cobert a una alçada de 400 ft
boirina

METAR: KFKA 201515Z AUTO 30005KT 5SM BR OVC004 M05/M06 A2983 RMK AO2 T10501058

Hora: 01:09 (07:09 UTC)


TAF: manca

Observacions i pronòstics meteorològics de més de 4000 aeroports (METAR i TAF).

Les estacions disponibles són els punts grocs i vermells al mapa.

Posi el ratolí al punt desitjat per veure el nom de l'estació.

Feu clic per veure les observacions i els pronòstics meteorològics.

Per canviar el mapa: feu clic els botons verds amb una creu de color negre per apropar; al botó verd amb un guió per allunyar la imatge; o en les fletxes verdes per a mapes adjacents.


METAR-TAF: